createdAt,value
2023-03-17T00:01:47.894Z,100130.13
2023-03-17T00:04:17.040Z,100145.19
2023-03-17T00:06:44.799Z,100149.59
2023-03-17T00:09:14.790Z,100153.19
2023-03-17T00:11:42.762Z,100166.25
2023-03-17T00:14:10.924Z,100154.88
2023-03-17T00:16:40.425Z,100180.38
2023-03-17T00:19:08.315Z,100165.59
2023-03-17T00:21:38.918Z,100181.44
2023-03-17T00:24:08.111Z,100177.91
2023-03-17T00:26:36.040Z,100182.41
2023-03-17T00:29:03.766Z,100179.66
2023-03-17T00:31:32.746Z,100177.97
2023-03-17T00:34:00.488Z,100171.84
2023-03-17T00:36:30.643Z,100173.56
2023-03-17T00:39:00.410Z,100177.16
2023-03-17T00:41:29.499Z,100177.28
2023-03-17T00:43:57.674Z,100167.59
2023-03-17T00:46:28.660Z,100175.56
2023-03-17T00:48:56.609Z,100189.53
2023-03-17T00:51:24.384Z,100182.50
2023-03-17T00:53:52.689Z,100175.53
2023-03-17T00:56:22.562Z,100181.53
2023-03-17T00:58:50.642Z,100196.34
2023-03-17T01:01:19.980Z,100192.84
2023-03-17T01:03:47.829Z,100192.75
2023-03-17T01:06:16.456Z,100190.13
2023-03-17T01:08:45.357Z,100199.69
2023-03-17T01:11:18.473Z,100186.50
2023-03-17T01:13:47.889Z,100196.19
2023-03-17T01:16:17.005Z,100201.50
2023-03-17T01:18:45.682Z,100215.66
2023-03-17T01:21:13.975Z,100202.34
2023-03-17T01:23:42.122Z,100192.56
2023-03-17T01:26:09.888Z,100202.16
2023-03-17T01:28:37.750Z,100189.03
2023-03-17T01:31:06.915Z,100182.13
2023-03-17T01:33:35.127Z,100181.16
2023-03-17T01:36:03.083Z,100179.31
2023-03-17T01:38:31.271Z,100177.59
2023-03-17T01:40:59.280Z,100175.81
2023-03-17T01:43:29.353Z,100180.19
2023-03-17T01:46:25.281Z,100173.19
2023-03-17T01:49:05.694Z,100165.28
2023-03-17T01:51:37.721Z,100178.50
2023-03-17T01:54:09.525Z,100180.06
2023-03-17T01:56:41.712Z,100155.59
2023-03-17T01:59:15.824Z,100162.66
2023-03-17T02:01:49.489Z,100172.25
2023-03-17T02:04:19.402Z,100185.34
2023-03-17T02:06:57.542Z,100153.88
2023-03-17T02:09:27.695Z,100153.88
2023-03-17T02:11:56.558Z,100146.78
2023-03-17T02:14:25.573Z,100134.41
2023-03-17T02:16:54.796Z,100138.81
2023-03-17T02:19:22.633Z,100122.97
2023-03-17T02:21:55.047Z,100136.97
2023-03-17T02:24:29.385Z,100122.84
2023-03-17T02:27:02.700Z,100119.34
2023-03-17T02:29:34.922Z,100107.03
2023-03-17T02:32:02.960Z,100124.72
2023-03-17T02:34:31.428Z,100147.47
2023-03-17T02:37:01.116Z,100138.72
2023-03-17T02:39:28.869Z,100128.03
2023-03-17T02:41:56.630Z,100142.09
2023-03-17T02:44:24.813Z,100142.31
2023-03-17T02:46:52.632Z,100147.75
2023-03-17T02:49:20.807Z,100166.25
2023-03-17T02:51:49.752Z,100169.81
2023-03-17T02:54:18.911Z,100194.38
2023-03-17T02:56:46.648Z,100185.66
2023-03-17T02:59:14.357Z,100191.06
2023-03-17T03:01:42.191Z,100209.41
2023-03-17T03:04:09.955Z,100221.66
2023-03-17T03:06:39.690Z,100204.97
2023-03-17T03:09:07.470Z,100211.13
2023-03-17T03:11:36.579Z,100214.66
2023-03-17T03:14:04.634Z,100205.84
2023-03-17T03:16:32.642Z,100212.03
2023-03-17T03:19:00.635Z,100219.81
2023-03-17T03:21:28.991Z,100211.22
2023-03-17T03:23:56.843Z,100212.09
2023-03-17T03:26:24.634Z,100215.78
2023-03-17T03:28:54.021Z,100219.25
2023-03-17T03:31:22.652Z,100227.09
2023-03-17T03:33:50.637Z,100213.03
2023-03-17T03:36:18.518Z,100234.00
2023-03-17T03:38:46.586Z,100226.13
2023-03-17T03:41:14.308Z,100233.03
2023-03-17T03:43:42.264Z,100203.13
2023-03-17T03:46:11.554Z,100209.25
2023-03-17T03:48:39.255Z,100223.28
2023-03-17T03:51:07.028Z,100220.75
2023-03-17T03:53:34.780Z,100209.28
2023-03-17T03:56:02.854Z,100190.03
2023-03-17T03:58:30.655Z,100184.69
2023-03-17T04:00:58.312Z,100174.13
2023-03-17T04:03:27.921Z,100181.19
2023-03-17T04:05:55.699Z,100171.63
2023-03-17T04:08:23.545Z,100179.56
2023-03-17T04:10:51.302Z,100178.81
2023-03-17T04:13:19.161Z,100170.00
2023-03-17T04:15:46.959Z,100170.09
2023-03-17T04:18:15.002Z,100152.59
2023-03-17T04:20:44.555Z,100187.63
2023-03-17T04:23:12.814Z,100173.56
2023-03-17T04:25:40.772Z,100141.22
2023-03-17T04:28:08.971Z,100155.25
2023-03-17T04:30:36.834Z,100177.13
2023-03-17T04:33:04.791Z,100144.69
2023-03-17T04:35:34.575Z,100138.50
2023-03-17T04:38:03.826Z,100141.00
2023-03-17T04:40:32.028Z,100138.28
2023-03-17T04:43:01.830Z,100139.25
2023-03-17T04:45:30.888Z,100140.06
2023-03-17T04:47:58.599Z,100141.84
2023-03-17T04:50:26.528Z,100126.94
2023-03-17T04:52:54.355Z,100107.81
2023-03-17T04:55:23.435Z,100127.06
2023-03-17T04:57:51.185Z,100127.81
2023-03-17T05:00:21.615Z,100134.94
2023-03-17T05:02:49.330Z,100125.28
2023-03-17T05:05:17.116Z,100113.78
2023-03-17T05:07:45.437Z,100125.34
2023-03-17T05:10:16.096Z,100135.03
2023-03-17T05:12:45.852Z,100163.19
2023-03-17T05:15:14.205Z,100146.47
2023-03-17T05:17:41.902Z,100143.78
2023-03-17T05:20:10.830Z,100124.47
2023-03-17T05:22:38.585Z,100129.06
2023-03-17T05:25:09.004Z,100124.56
2023-03-17T05:27:37.617Z,100130.56
2023-03-17T05:30:08.323Z,100121.84
2023-03-17T05:32:36.493Z,100113.78
2023-03-17T05:35:06.047Z,100111.06
2023-03-17T05:37:33.867Z,100117.16
2023-03-17T05:40:03.965Z,100121.69
2023-03-17T05:42:31.727Z,100146.16
2023-03-17T05:44:59.408Z,100110.97
2023-03-17T05:47:28.636Z,100102.88
2023-03-17T05:49:56.301Z,100097.44
2023-03-17T05:52:23.958Z,100097.44
2023-03-17T05:54:52.265Z,100091.34
2023-03-17T05:57:20.420Z,100071.13
2023-03-17T05:59:48.304Z,100079.88
2023-03-17T06:02:16.589Z,100063.94
2023-03-17T06:04:45.800Z,100072.75
2023-03-17T06:07:13.932Z,100066.53
2023-03-17T06:09:41.696Z,100081.38
2023-03-17T06:12:10.888Z,100071.63
2023-03-17T06:14:38.711Z,100079.56
2023-03-17T06:17:06.729Z,100072.31
2023-03-17T06:19:34.538Z,100067.97
2023-03-17T06:22:03.690Z,100076.59
2023-03-17T06:24:35.223Z,100071.16
2023-03-17T06:27:03.023Z,100072.88
2023-03-17T06:29:30.889Z,100071.88
2023-03-17T06:32:09.245Z,100075.34
2023-03-17T06:34:45.109Z,100081.41
2023-03-17T06:37:14.722Z,100076.75
2023-03-17T06:39:42.834Z,100079.13
2023-03-17T06:42:10.863Z,100067.59
2023-03-17T06:44:38.870Z,100048.97
2023-03-17T06:47:06.884Z,100079.50
2023-03-17T06:49:35.021Z,100076.56
2023-03-17T06:52:02.857Z,100080.72
2023-03-17T06:54:32.592Z,100069.00
2023-03-17T06:57:00.328Z,100042.28
2023-03-17T06:59:28.099Z,100055.97
2023-03-17T07:01:55.799Z,100030.44
2023-03-17T07:04:23.736Z,99990.63
2023-03-17T07:06:51.597Z,99981.97
2023-03-17T07:09:19.425Z,100017.53
2023-03-17T07:11:48.643Z,99967.56
2023-03-17T07:14:16.394Z,99986.06
2023-03-17T07:16:45.065Z,100011.09
2023-03-17T07:19:12.988Z,100005.53
2023-03-17T07:21:40.912Z,100008.56
2023-03-17T07:24:09.832Z,99978.69
2023-03-17T07:26:37.544Z,99973.94
2023-03-17T07:29:08.297Z,99963.09
2023-03-17T07:31:38.526Z,99969.72
2023-03-17T07:34:06.516Z,99949.25
2023-03-17T07:36:34.555Z,99926.31
2023-03-17T07:39:02.254Z,99914.00
2023-03-17T07:41:29.980Z,99885.09
2023-03-17T07:43:58.446Z,99886.72
2023-03-17T07:46:27.719Z,99885.78
2023-03-17T07:48:55.547Z,99906.84
2023-03-17T07:51:27.546Z,99946.06
2023-03-17T07:54:03.119Z,100035.53
2023-03-17T07:56:31.983Z,100024.44
2023-03-17T07:59:00.079Z,99998.28
2023-03-17T08:01:30.470Z,99942.94
2023-03-17T08:03:58.683Z,99911.94
2023-03-17T08:06:26.964Z,99862.91
2023-03-17T08:08:55.766Z,99905.78
2023-03-17T08:11:24.199Z,99931.16
2023-03-17T08:13:52.029Z,99868.66
2023-03-17T08:16:19.845Z,99904.41
2023-03-17T08:18:49.205Z,99949.66
2023-03-17T08:21:17.535Z,99868.41
2023-03-17T08:23:45.532Z,99860.94
2023-03-17T08:26:14.233Z,99875.69
2023-03-17T08:28:43.063Z,99871.72
2023-03-17T08:31:13.656Z,99841.72
2023-03-17T08:33:42.337Z,99788.50
2023-03-17T08:36:12.839Z,99799.97
2023-03-17T08:38:42.550Z,99786.75
2023-03-17T08:41:12.263Z,99793.47
2023-03-17T08:43:40.506Z,99802.78
2023-03-17T08:46:11.322Z,99747.97
2023-03-17T08:48:39.143Z,99764.44
2023-03-17T08:51:07.251Z,99751.59
2023-03-17T08:53:37.307Z,99731.22
2023-03-17T08:56:06.949Z,99699.78
2023-03-17T08:58:35.682Z,99749.56
2023-03-17T09:01:05.650Z,99761.47
2023-03-17T09:03:34.195Z,99735.28
2023-03-17T09:06:04.592Z,99791.22
2023-03-17T09:08:32.864Z,99743.88
2023-03-17T09:11:05.274Z,99743.22
2023-03-17T09:13:33.207Z,99673.81
2023-03-17T09:16:01.325Z,99753.50
2023-03-17T09:18:31.286Z,99752.00
2023-03-17T09:20:59.156Z,99789.66
2023-03-17T09:23:27.025Z,99798.69
2023-03-17T09:25:55.250Z,99759.47
2023-03-17T09:28:24.540Z,99783.16
2023-03-17T09:30:52.754Z,99797.28
2023-03-17T09:33:21.063Z,99812.22
2023-03-17T09:35:48.917Z,99777.44
2023-03-17T09:38:17.056Z,99750.78
2023-03-17T09:40:48.980Z,99802.28
2023-03-17T09:43:32.963Z,99683.56
2023-03-17T09:46:11.224Z,99777.53
2023-03-17T09:49:00.178Z,99837.09
2023-03-17T09:51:31.189Z,99829.38
2023-03-17T09:54:01.541Z,99817.78
2023-03-17T09:56:31.929Z,99855.69
2023-03-17T09:59:08.418Z,99826.75
2023-03-17T10:01:38.291Z,99832.09
2023-03-17T10:04:06.412Z,99886.91
2023-03-17T10:06:37.840Z,99835.16
2023-03-17T10:09:25.491Z,99747.53
2023-03-17T10:12:04.497Z,99723.97
2023-03-17T10:14:43.292Z,99699.09
2023-03-17T10:17:17.596Z,99626.22
2023-03-17T10:19:50.872Z,99585.13
2023-03-17T10:22:23.649Z,99691.31
2023-03-17T10:24:54.121Z,99655.75
2023-03-17T10:27:22.420Z,99566.97
2023-03-17T10:29:51.723Z,99529.97
2023-03-17T10:32:19.617Z,99531.72
2023-03-17T10:34:49.315Z,99616.75
2023-03-17T10:37:21.166Z,99679.41
2023-03-17T10:39:52.270Z,99677.28
2023-03-17T10:42:25.538Z,99561.81
2023-03-17T10:44:57.626Z,99631.81
2023-03-17T10:47:32.252Z,99532.91
2023-03-17T10:50:05.462Z,99474.59
2023-03-17T10:52:39.543Z,99502.06
2023-03-17T10:55:10.606Z,99569.44
2023-03-17T10:57:39.914Z,99528.44
2023-03-17T11:00:19.809Z,99535.44
2023-03-17T11:02:52.430Z,99545.03
2023-03-17T11:05:22.826Z,99460.25
2023-03-17T11:07:58.924Z,99545.72
2023-03-17T11:10:29.208Z,99502.66
2023-03-17T11:13:00.700Z,99438.69
2023-03-17T11:15:34.795Z,99385.28
2023-03-17T11:18:04.343Z,99388.78
2023-03-17T11:20:44.573Z,99414.09
2023-03-17T11:23:32.820Z,99433.38
2023-03-17T11:26:14.802Z,99432.75
2023-03-17T11:28:49.456Z,99318.47
2023-03-17T11:31:25.337Z,99355.22
2023-03-17T11:34:04.333Z,99305.69
2023-03-17T11:36:46.060Z,99359.88
2023-03-17T11:39:17.398Z,99257.72
2023-03-17T11:41:54.680Z,99339.28
2023-03-17T11:44:43.245Z,99321.13
2023-03-17T11:47:27.801Z,99259.06
2023-03-17T11:50:04.464Z,99282.56
2023-03-17T11:52:39.748Z,99314.06
2023-03-17T11:55:17.634Z,99295.06
2023-03-17T11:57:52.076Z,99345.09
2023-03-17T12:00:28.441Z,99361.63
2023-03-17T12:03:05.679Z,99408.28
2023-03-17T12:05:35.691Z,99329.00
2023-03-17T12:08:07.588Z,99258.59
2023-03-17T12:10:41.223Z,99288.38
2023-03-17T12:13:16.593Z,99346.50
2023-03-17T12:15:48.485Z,99351.59
2023-03-17T12:18:25.164Z,99259.47
2023-03-17T12:20:57.344Z,99261.72
2023-03-17T12:23:33.717Z,99227.22
2023-03-17T12:26:06.934Z,99211.75
2023-03-17T12:28:39.316Z,99231.50
2023-03-17T12:31:10.427Z,99216.19
2023-03-17T12:33:46.129Z,99262.16
2023-03-17T12:36:17.531Z,99225.88
2023-03-17T12:38:47.839Z,99233.06
2023-03-17T12:41:31.531Z,99196.44
2023-03-17T12:44:23.026Z,99309.16
2023-03-17T12:47:17.276Z,99333.09
2023-03-17T12:50:25.341Z,99308.69
2023-03-17T12:53:10.378Z,99261.00
2023-03-17T12:55:39.237Z,99247.00
2023-03-17T12:58:25.918Z,99230.31
2023-03-17T13:01:02.492Z,99307.31
2023-03-17T13:03:33.260Z,99238.75
2023-03-17T13:06:04.901Z,99146.94
2023-03-17T13:08:35.794Z,99243.06
2023-03-17T13:11:19.615Z,99318.72
2023-03-17T13:13:59.101Z,99385.25
2023-03-17T13:16:29.773Z,99363.19
2023-03-17T13:19:22.747Z,99343.25
2023-03-17T13:21:54.380Z,99421.72
2023-03-17T13:24:40.280Z,99387.97
2023-03-17T13:27:12.278Z,99308.88
2023-03-17T13:29:47.841Z,99437.56
2023-03-17T13:32:39.900Z,99441.13
2023-03-17T13:35:37.564Z,99403.56
2023-03-17T13:38:40.999Z,99418.09
2023-03-17T13:41:24.815Z,99430.00
2023-03-17T13:44:22.844Z,99403.00
2023-03-17T13:46:51.558Z,99451.88
2023-03-17T13:49:30.307Z,99355.41
2023-03-17T13:52:03.425Z,99364.78
2023-03-17T13:54:35.181Z,99344.84
2023-03-17T13:57:26.672Z,99386.38
2023-03-17T13:59:58.624Z,99283.34
2023-03-17T14:02:30.222Z,99291.56
2023-03-17T14:05:00.344Z,99269.03
2023-03-17T14:07:32.335Z,99269.16
2023-03-17T14:10:04.962Z,99296.13
2023-03-17T14:12:41.223Z,99319.19
2023-03-17T14:15:16.868Z,99331.22
2023-03-17T14:17:48.400Z,99344.34
2023-03-17T14:20:24.402Z,99294.16
2023-03-17T14:22:56.586Z,99329.97
2023-03-17T14:25:27.501Z,99266.09
2023-03-17T14:27:58.539Z,99295.59
2023-03-17T14:30:28.622Z,99270.09
2023-03-17T14:33:02.767Z,99234.97
2023-03-17T14:35:32.097Z,99258.63
2023-03-17T14:38:01.160Z,99285.63
2023-03-17T14:40:36.830Z,99317.25
2023-03-17T14:43:05.263Z,99283.78
2023-03-17T14:45:47.557Z,99303.78
2023-03-17T14:48:17.480Z,99297.19
2023-03-17T14:50:52.250Z,99313.16
2023-03-17T14:53:20.433Z,99341.69
2023-03-17T14:55:49.832Z,99331.59
2023-03-17T14:58:25.549Z,99333.03
2023-03-17T15:00:59.569Z,99319.44
2023-03-17T15:03:33.084Z,99307.59
2023-03-17T15:06:08.102Z,99304.31
2023-03-17T15:08:46.078Z,99296.25
2023-03-17T15:11:39.496Z,99246.53
2023-03-17T15:14:19.291Z,99270.09
2023-03-17T15:16:50.613Z,99282.78
2023-03-17T15:19:27.597Z,99327.00
2023-03-17T15:22:00.273Z,99347.50
2023-03-17T15:24:47.135Z,99310.44
2023-03-17T15:27:18.237Z,99325.34
2023-03-17T15:29:47.415Z,99309.25
2023-03-17T15:32:16.514Z,99301.88
2023-03-17T15:34:44.509Z,99292.00
2023-03-17T15:37:18.142Z,99301.28
2023-03-17T15:39:46.530Z,99309.19
2023-03-17T15:42:14.349Z,99307.41
2023-03-17T15:44:43.999Z,99289.03
2023-03-17T15:47:15.560Z,99280.59
2023-03-17T15:49:43.787Z,99291.31
2023-03-17T15:52:16.848Z,99312.53
2023-03-17T15:54:45.362Z,99282.09
2023-03-17T15:57:13.868Z,99294.00
2023-03-17T15:59:43.138Z,99291.38
2023-03-17T16:02:27.484Z,99285.16
2023-03-17T16:04:55.755Z,99313.19
2023-03-17T16:07:23.943Z,99296.25
2023-03-17T16:09:51.989Z,99289.81
2023-03-17T16:12:20.271Z,99302.00
2023-03-17T16:14:49.343Z,99302.88
2023-03-17T16:17:21.503Z,99310.28
2023-03-17T16:19:49.340Z,99327.19
2023-03-17T16:22:37.450Z,99313.22
2023-03-17T16:25:06.173Z,99288.13
2023-03-17T16:27:34.751Z,99310.31
2023-03-17T16:30:04.364Z,99310.69
2023-03-17T16:32:32.071Z,99311.16
2023-03-17T16:34:59.840Z,99317.13
2023-03-17T16:37:27.549Z,99324.06
2023-03-17T16:39:55.278Z,99321.41
2023-03-17T16:42:23.825Z,99324.06
2023-03-17T16:44:51.861Z,99323.34
2023-03-17T16:47:20.990Z,99309.22
2023-03-17T16:49:48.681Z,99320.41
2023-03-17T16:52:16.416Z,99325.28
2023-03-17T16:54:44.154Z,99334.91
2023-03-17T16:57:13.484Z,99329.44
2023-03-17T16:59:41.312Z,99308.28
2023-03-17T17:02:16.886Z,99326.28
2023-03-17T17:04:46.355Z,99309.94
2023-03-17T17:07:14.030Z,99312.63
2023-03-17T17:09:41.778Z,99310.78
2023-03-17T17:12:10.437Z,99295.22
2023-03-17T17:14:38.332Z,99295.09
2023-03-17T17:17:06.267Z,99299.72
2023-03-17T17:19:34.013Z,99290.72
2023-03-17T17:22:03.132Z,99291.09
2023-03-17T17:24:31.071Z,99279.66
2023-03-17T17:26:58.923Z,99280.59
2023-03-17T17:29:26.606Z,99286.59
2023-03-17T17:31:54.293Z,99260.78
2023-03-17T17:34:22.313Z,99252.91
2023-03-17T17:36:50.309Z,99264.34
2023-03-17T17:39:19.408Z,99248.41
2023-03-17T17:41:47.142Z,99256.06
2023-03-17T17:44:16.639Z,99234.91
2023-03-17T17:46:44.434Z,99242.56
2023-03-17T17:49:12.454Z,99240.00
2023-03-17T17:51:40.155Z,99243.53
2023-03-17T17:54:07.986Z,99244.38
2023-03-17T17:56:40.130Z,99226.63
2023-03-17T17:59:08.031Z,99248.50
2023-03-17T18:01:35.852Z,99236.31
2023-03-17T18:04:03.761Z,99241.66
2023-03-17T18:06:31.576Z,99266.94
2023-03-17T18:08:59.927Z,99247.59
2023-03-17T18:11:27.704Z,99234.47
2023-03-17T18:13:56.735Z,99226.09
2023-03-17T18:16:25.770Z,99236.25
2023-03-17T18:18:53.783Z,99244.16
2023-03-17T18:21:21.564Z,99221.22
2023-03-17T18:23:49.947Z,99232.13
2023-03-17T18:26:18.472Z,99222.50
2023-03-17T18:28:47.437Z,99221.91
2023-03-17T18:31:19.951Z,99234.75
2023-03-17T18:33:51.148Z,99228.81
2023-03-17T18:36:19.674Z,99248.38
2023-03-17T18:38:47.378Z,99251.03
2023-03-17T18:41:15.537Z,99251.16
2023-03-17T18:43:44.775Z,99255.75
2023-03-17T18:46:12.971Z,99256.25
2023-03-17T18:48:42.443Z,99269.59
2023-03-17T18:51:10.635Z,99271.63
2023-03-17T18:53:39.130Z,99264.72
2023-03-17T18:56:07.584Z,99266.53
2023-03-17T18:58:36.179Z,99266.66
2023-03-17T19:01:04.365Z,99266.00
2023-03-17T19:03:33.258Z,99263.22
2023-03-17T19:06:13.293Z,99267.72
2023-03-17T19:08:42.869Z,99263.22
2023-03-17T19:11:12.295Z,99274.25
2023-03-17T19:13:40.704Z,99295.53
2023-03-17T19:16:09.324Z,99292.72
2023-03-17T19:18:40.817Z,99275.44
2023-03-17T19:21:13.009Z,99292.56
2023-03-17T19:23:44.922Z,99292.91
2023-03-17T19:26:12.704Z,99294.94
2023-03-17T19:28:40.484Z,99320.25
2023-03-17T19:31:09.408Z,99294.44
2023-03-17T19:33:37.244Z,99301.38
2023-03-17T19:36:08.488Z,99310.59
2023-03-17T19:38:37.740Z,99305.69
2023-03-17T19:41:06.714Z,99340.28
2023-03-17T19:43:40.854Z,99316.72
2023-03-17T19:46:10.243Z,99311.06
2023-03-17T19:48:46.636Z,99318.97
2023-03-17T19:51:14.724Z,99323.47
2023-03-17T19:53:43.781Z,99323.16
2023-03-17T19:56:11.878Z,99332.09
2023-03-17T19:58:39.636Z,99348.03
2023-03-17T20:01:08.406Z,99375.78
2023-03-17T20:03:39.258Z,99352.94
2023-03-17T20:06:06.985Z,99373.25
2023-03-17T20:08:35.605Z,99386.72
2023-03-17T20:11:05.946Z,99388.84
2023-03-17T20:13:34.628Z,99403.97
2023-03-17T20:16:02.903Z,99405.91
2023-03-17T20:18:31.503Z,99408.69
2023-03-17T20:21:00.281Z,99415.94
2023-03-17T20:23:28.483Z,99423.31
2023-03-17T20:25:57.289Z,99427.13
2023-03-17T20:28:29.503Z,99429.81
2023-03-17T20:31:00.439Z,99428.41
2023-03-17T20:33:28.329Z,99430.41
2023-03-17T20:35:56.037Z,99434.88
2023-03-17T20:38:25.551Z,99460.50
2023-03-17T20:40:53.241Z,99457.09
2023-03-17T20:43:20.968Z,99451.97
2023-03-17T20:45:53.080Z,99448.53
2023-03-17T20:48:21.565Z,99462.94
2023-03-17T20:50:50.798Z,99463.88
2023-03-17T20:53:18.516Z,99474.38
2023-03-17T20:55:47.232Z,99489.63
2023-03-17T21:16:50.371Z,99525.59
2023-03-17T21:19:18.080Z,99521.25
2023-03-17T21:21:45.834Z,99516.09
2023-03-17T21:24:25.369Z,99511.16
2023-03-17T21:26:53.333Z,99536.13
2023-03-17T21:29:22.015Z,99544.19
2023-03-17T21:31:51.750Z,99538.41
2023-03-17T21:34:19.957Z,99563.47
2023-03-17T21:36:47.955Z,99583.72
2023-03-17T21:39:16.259Z,99589.34
2023-03-17T21:41:44.687Z,99593.84
2023-03-17T21:44:15.779Z,99608.13
2023-03-17T21:46:43.956Z,99610.69
2023-03-17T21:49:16.037Z,99615.16
2023-03-17T21:51:44.338Z,99618.03
2023-03-17T21:54:12.481Z,99635.50
2023-03-17T21:56:41.337Z,99641.72
2023-03-17T21:59:10.888Z,99642.78
2023-03-17T22:01:38.916Z,99639.16
2023-03-17T22:04:06.845Z,99659.63
2023-03-17T22:06:36.066Z,99666.94
2023-03-17T22:09:05.368Z,99686.94
2023-03-17T22:11:33.209Z,99702.56
2023-03-17T22:14:01.774Z,99694.66
2023-03-17T22:16:29.767Z,99700.81
2023-03-17T22:18:57.636Z,99704.44
2023-03-17T22:21:25.884Z,99709.59
2023-03-17T22:23:55.093Z,99709.88
2023-03-17T22:26:23.293Z,99723.13
2023-03-17T22:28:51.976Z,99724.25
2023-03-17T22:31:22.281Z,99737.47
2023-03-17T22:33:52.390Z,99745.28
2023-03-17T22:36:20.357Z,99741.94
2023-03-17T22:38:48.662Z,99741.94
2023-03-17T22:41:21.521Z,99732.91
2023-03-17T22:43:49.520Z,99745.38
2023-03-17T22:46:18.263Z,99732.03
2023-03-17T22:48:46.733Z,99735.75
2023-03-17T22:51:16.927Z,99741.94
2023-03-17T22:53:45.375Z,99743.19
2023-03-17T22:56:14.711Z,99766.13
2023-03-17T22:58:44.214Z,99760.22
2023-03-17T23:01:13.738Z,99776.97
2023-03-17T23:03:42.094Z,99765.53
2023-03-17T23:06:11.358Z,99764.59
2023-03-17T23:08:40.297Z,99767.59
2023-03-17T23:11:11.646Z,99775.59
2023-03-17T23:13:40.495Z,99778.25
2023-03-17T23:16:10.704Z,99771.31
2023-03-17T23:18:38.618Z,99772.34
2023-03-17T23:21:07.367Z,99769.88
2023-03-17T23:23:36.131Z,99767.22
2023-03-17T23:26:04.200Z,99774.38
2023-03-17T23:28:32.142Z,99771.97
2023-03-17T23:31:00.018Z,99776.63
2023-03-17T23:33:29.445Z,99785.66
2023-03-17T23:35:57.243Z,99795.44
2023-03-17T23:38:25.139Z,99789.44
2023-03-17T23:40:57.186Z,99812.56
2023-03-17T23:43:26.010Z,99823.09
2023-03-17T23:45:54.360Z,99830.34
2023-03-17T23:48:22.351Z,99849.00
2023-03-17T23:50:53.801Z,99849.72
2023-03-17T23:53:23.337Z,99857.72
2023-03-17T23:55:53.025Z,99851.53
2023-03-17T23:58:21.143Z,99865.63
